Time;durP1;ratioP1;P1;durP2;ratioP2;P2;SDS_P1;SDS_P2;PMS_P1;PMS_P2;Temp;Humidity;BMP_temperature;BMP_pressure;BME280_temperature;BME280_humidity;BME280_pressure;Samples;Min_cycle;Max_cycle;Signal;HPM_P1;HPM_P2
2023/03/14 00:00:00;;;;;;;28.92;15.00;;;15.00;83.60;;;;;;5056321;28;20041;-80
2023/03/14 00:02:26;;;;;;;32.20;12.30;;;15.00;83.60;;;;;;5080479;23;20147;-81
2023/03/14 00:04:56;;;;;;;30.75;11.95;;;15.00;83.40;;;;;;5056584;28;20071;-80
2023/03/14 00:07:24;;;;;;;30.67;13.35;;;15.00;83.20;;;;;;5074430;28;20506;-81
2023/03/14 00:09:50;;;;;;;26.73;11.68;;;15.00;82.70;;;;;;5074833;28;20046;-81
2023/03/14 00:12:16;;;;;;;20.83;10.10;;;15.00;82.60;;;;;;5074415;28;20547;-78
2023/03/14 00:14:42;;;;;;;31.98;12.45;;;15.00;82.30;;;;;;5073550;28;20096;-80
2023/03/14 00:17:08;;;;;;;27.30;12.05;;;15.00;82.30;;;;;;5073574;28;20063;-80
2023/03/14 00:19:34;;;;;;;25.58;11.48;;;15.00;82.20;;;;;;5073917;28;20032;-80
2023/03/14 00:22:00;;;;;;;23.83;11.23;;;15.00;82.10;;;;;;5076094;28;20033;-80
2023/03/14 00:24:25;;;;;;;22.90;10.73;;;15.00;82.10;;;;;;5076401;28;20111;-79
2023/03/14 00:26:51;;;;;;;21.48;10.32;;;15.00;81.70;;;;;;5074700;28;20060;-80
2023/03/14 00:29:17;;;;;;;25.58;10.93;;;15.00;81.60;;;;;;5057757;28;20503;-79
2023/03/14 00:31:43;;;;;;;26.25;11.30;;;15.00;81.50;;;;;;5081879;28;20033;-80
2023/03/14 00:34:08;;;;;;;28.95;11.77;;;15.00;81.60;;;;;;5082299;28;20028;-79
2023/03/14 00:36:34;;;;;;;26.58;12.30;;;15.00;81.80;;;;;;5080140;28;20456;-80
2023/03/14 00:39:00;;;;;;;27.63;12.75;;;15.00;81.90;;;;;;5075628;28;20035;-79
2023/03/14 00:41:25;;;;;;;26.40;12.68;;;14.90;81.90;;;;;;5075471;28;20045;-80
2023/03/14 00:43:51;;;;;;;31.50;12.52;;;14.90;82.10;;;;;;5057046;28;20028;-80
2023/03/14 00:46:17;;;;;;;36.63;12.65;;;14.90;82.20;;;;;;5073646;28;20058;-80
2023/03/14 00:48:45;;;;;;;34.92;14.38;;;14.90;82.30;;;;;;5056609;28;20119;-78
2023/03/14 00:51:13;;;;;;;30.35;13.98;;;14.90;82.30;;;;;;5074230;28;20511;-78
2023/03/14 00:53:40;;;;;;;31.33;14.20;;;14.80;82.50;;;;;;5074247;28;20040;-80
2023/03/14 00:56:09;;;;;;;30.65;13.93;;;14.80;82.70;;;;;;5074067;28;20028;-80
2023/03/14 00:58:35;;;;;;;30.58;13.38;;;14.70;83.00;;;;;;5074664;28;20024;-79
2023/03/14 01:01:09;;;;;;;31.00;13.13;;;14.70;83.00;;;;;;5073776;28;20395;-79
2023/03/14 01:03:35;;;;;;;31.98;14.05;;;14.70;83.90;;;;;;5074605;28;20036;-80
2023/03/14 01:06:10;;;;;;;35.33;15.10;;;14.70;83.20;;;;;;5076272;28;20103;-79
2023/03/14 01:08:35;;;;;;;37.42;14.05;;;14.60;83.60;;;;;;5077817;28;20049;-80
2023/03/14 01:11:08;;;;;;;32.42;13.32;;;14.60;83.70;;;;;;5078235;28;20488;-80
2023/03/14 01:13:35;;;;;;;28.95;12.70;;;14.50;83.60;;;;;;5075549;28;20064;-80
2023/03/14 01:16:06;;;;;;;33.88;14.30;;;14.50;83.80;;;;;;5074976;28;20030;-80
2023/03/14 01:18:33;;;;;;;27.58;12.63;;;14.50;83.80;;;;;;5074163;28;20096;-80
2023/03/14 01:20:58;;;;;;;29.10;14.23;;;14.50;84.30;;;;;;5073519;28;20056;-81
2023/03/14 01:23:25;;;;;;;25.48;12.88;;;14.50;83.60;;;;;;5073875;28;20062;-80
2023/03/14 01:25:50;;;;;;;28.50;13.18;;;14.50;83.70;;;;;;5073675;28;20047;-80
2023/03/14 01:28:16;;;;;;;33.50;14.65;;;14.50;83.70;;;;;;5073278;28;20037;-81
2023/03/14 01:30:42;;;;;;;28.83;13.45;;;14.40;83.40;;;;;;5073170;28;20033;-80
2023/03/14 01:33:07;;;;;;;25.85;13.05;;;14.40;83.70;;;;;;5074556;28;20064;-80
2023/03/14 01:35:33;;;;;;;32.28;13.95;;;14.40;83.60;;;;;;5074270;28;20033;-79
2023/03/14 01:37:59;;;;;;;32.28;14.32;;;14.40;83.70;;;;;;5073569;28;20114;-81
2023/03/14 01:40:25;;;;;;;28.55;13.50;;;14.30;83.60;;;;;;5073848;28;20043;-81
2023/03/14 01:42:58;;;;;;;25.30;13.10;;;14.30;83.60;;;;;;5080878;28;20038;-79
2023/03/14 01:45:57;;;;;;;23.80;12.73;;;14.30;83.40;;;;;;5086582;28;20040;-79
2023/03/14 01:48:25;;;;;;;28.33;13.80;;;14.30;83.90;;;;;;5075800;28;20599;-80
2023/03/14 01:50:51;;;;;;;26.48;12.95;;;14.30;83.10;;;;;;5059814;28;20107;-80
2023/03/14 01:53:21;;;;;;;29.70;12.60;;;14.20;83.20;;;;;;5081817;28;20044;-80
2023/03/14 01:55:49;;;;;;;23.17;12.57;;;14.20;83.00;;;;;;5073187;28;20036;-80
2023/03/14 01:58:17;;;;;;;24.92;11.68;;;14.20;82.80;;;;;;5072580;28;20033;-79
2023/03/14 02:00:43;;;;;;;26.25;11.70;;;14.20;82.70;;;;;;5072240;28;20033;-80
2023/03/14 02:03:16;;;;;;;26.58;11.70;;;14.20;82.70;;;;;;5072367;28;20059;-80
2023/03/14 02:05:43;;;;;;;29.05;11.77;;;14.20;82.50;;;;;;5054624;28;20029;-80
2023/03/14 02:08:13;;;;;;;24.23;11.45;;;14.20;82.40;;;;;;5072244;28;20060;-79
2023/03/14 02:10:42;;;;;;;21.65;11.23;;;14.20;82.10;;;;;;5081179;28;20009;-79
2023/03/14 02:13:08;;;;;;;21.33;12.07;;;14.20;81.80;;;;;;5096657;28;20031;-79
2023/03/14 02:15:34;;;;;;;20.42;10.30;;;14.20;81.60;;;;;;5080367;28;20107;-78
2023/03/14 02:18:03;;;;;;;18.80;10.43;;;14.20;81.40;;;;;;5076556;28;20508;-80
2023/03/14 02:21:06;;;;;;;18.55;9.73;;;14.10;81.10;;;;;;5076176;28;20060;-80
2023/03/14 02:23:51;;;;;;;23.88;10.02;;;14.10;81.20;;;;;;5075716;28;20020;-79
2023/03/14 02:26:19;;;;;;;18.83;9.57;;;14.10;81.00;;;;;;5075400;28;20150;-79
2023/03/14 02:28:45;;;;;;;18.02;8.20;;;14.20;80.50;;;;;;5075941;28;20365;-79
2023/03/14 02:31:12;;;;;;;21.77;9.88;;;14.10;80.00;;;;;;5075441;28;20115;-79
2023/03/14 02:33:39;;;;;;;18.95;8.98;;;14.10;79.60;;;;;;5075521;28;20107;-79
2023/03/14 02:36:11;;;;;;;16.10;8.52;;;14.10;79.60;;;;;;5078072;28;20033;-80
2023/03/14 02:39:18;;;;;;;16.98;7.85;;;14.10;79.40;;;;;;5078690;28;20095;-79
2023/03/14 02:41:45;;;;;;;16.85;7.72;;;14.00;79.40;;;;;;5043991;28;20146;-78
2023/03/14 02:44:11;;;;;;;15.93;7.25;;;14.00;79.10;;;;;;5075178;28;20037;-79
2023/03/14 02:46:37;;;;;;;18.00;7.30;;;14.00;78.90;;;;;;5075062;28;20040;-80
2023/03/14 02:49:14;;;;;;;16.02;7.05;;;14.00;78.60;;;;;;5075222;28;20514;-79
2023/03/14 02:51:42;;;;;;;15.15;6.55;;;14.10;78.30;;;;;;5074814;28;20476;-80
2023/03/14 02:54:08;;;;;;;13.60;6.50;;;14.10;78.30;;;;;;5074303;28;20107;-78
2023/03/14 02:56:34;;;;;;;13.40;6.40;;;14.10;78.10;;;;;;5074557;28;20115;-79
2023/03/14 02:59:05;;;;;;;13.20;6.70;;;14.10;77.80;;;;;;5074524;28;20056;-79
2023/03/14 03:01:32;;;;;;;12.13;5.80;;;14.10;77.60;;;;;;5076830;28;20131;-79
2023/03/14 03:03:58;;;;;;;14.55;6.90;;;14.10;77.30;;;;;;5094695;28;20032;-79
2023/03/14 03:06:24;;;;;;;13.57;5.50;;;14.00;77.00;;;;;;5074852;28;20028;-79
2023/03/14 03:08:49;;;;;;;11.20;5.95;;;14.00;77.00;;;;;;5075064;28;20111;-78
2023/03/14 03:11:15;;;;;;;12.30;6.40;;;14.00;76.60;;;;;;5074699;28;20028;-79
2023/03/14 03:13:41;;;;;;;10.57;5.55;;;13.90;76.50;;;;;;5074152;28;20123;-79
2023/03/14 03:16:07;;;;;;;12.65;6.78;;;13.90;76.70;;;;;;5074570;28;20118;-81
2023/03/14 03:18:33;;;;;;;14.10;6.75;;;13.90;76.80;;;;;;5075025;28;20028;-79
2023/03/14 03:21:04;;;;;;;11.23;5.95;;;13.90;76.90;;;;;;5074542;28;20114;-79
2023/03/14 03:23:30;;;;;;;10.00;5.72;;;13.90;77.00;;;;;;5075612;28;20115;-79
2023/03/14 03:25:56;;;;;;;11.63;6.43;;;13.90;76.70;;;;;;5078450;28;20368;-79
2023/03/14 03:28:21;;;;;;;12.75;6.60;;;13.90;76.60;;;;;;5076129;28;20056;-79
2023/03/14 03:30:47;;;;;;;12.02;6.32;;;13.90;76.90;;;;;;5074607;28;20055;-79
2023/03/14 03:33:14;;;;;;;12.60;6.35;;;13.80;76.60;;;;;;5074310;28;20057;-80
2023/03/14 03:35:48;;;;;;;15.13;6.68;;;13.80;76.90;;;;;;5074016;28;20096;-79
2023/03/14 03:38:14;;;;;;;12.68;6.50;;;13.80;76.90;;;;;;5073686;28;20086;-80
2023/03/14 03:40:40;;;;;;;12.80;5.90;;;13.80;77.10;;;;;;5055735;28;20333;-79
2023/03/14 03:43:06;;;;;;;12.60;6.88;;;13.80;77.10;;;;;;5074301;28;20051;-80
2023/03/14 03:45:32;;;;;;;12.68;6.40;;;13.80;77.10;;;;;;5075372;28;20040;-80
2023/03/14 03:47:57;;;;;;;13.23;6.30;;;13.80;76.90;;;;;;5074795;28;20037;-81
2023/03/14 03:50:23;;;;;;;11.73;5.93;;;13.80;76.90;;;;;;5074184;28;20032;-79
2023/03/14 03:52:49;;;;;;;9.15;5.95;;;13.80;76.90;;;;;;5073477;28;20106;-80
2023/03/14 03:55:14;;;;;;;12.32;4.72;;;13.80;76.90;;;;;;5073701;28;20387;-79
2023/03/14 03:57:40;;;;;;;12.18;5.15;;;13.90;76.90;;;;;;5073193;28;20115;-80
2023/03/14 04:00:09;;;;;;;9.38;5.20;;;13.90;76.40;;;;;;5073440;28;20029;-80
2023/03/14 04:02:34;;;;;;;11.00;5.65;;;13.90;76.90;;;;;;5073514;28;20143;-78
2023/03/14 04:05:00;;;;;;;15.25;6.13;;;13.90;76.10;;;;;;5073334;28;20064;-79
2023/03/14 04:07:26;;;;;;;9.02;4.75;;;13.90;76.10;;;;;;5073431;28;20040;-80
2023/03/14 04:09:51;;;;;;;10.02;4.63;;;14.00;75.90;;;;;;5075105;28;20407;-79
2023/03/14 04:12:17;;;;;;;9.55;3.92;;;14.00;75.60;;;;;;5077269;28;20050;-80
2023/03/14 04:14:43;;;;;;;11.02;3.90;;;14.10;74.90;;;;;;5076083;28;20032;-79
2023/03/14 04:17:09;;;;;;;9.68;3.47;;;14.20;74.50;;;;;;5064897;28;20043;-79
2023/03/14 04:19:34;;;;;;;10.15;3.63;;;14.20;73.60;;;;;;5094166;28;20064;-79
2023/03/14 04:22:00;;;;;;;7.28;3.60;;;14.30;73.30;;;;;;5078366;28;20039;-79
2023/03/14 04:24:26;;;;;;;11.15;3.60;;;14.30;72.90;;;;;;5073886;28;20040;-79
2023/03/14 04:26:52;;;;;;;10.15;4.75;;;14.30;72.90;;;;;;5074205;28;20063;-80
2023/03/14 04:29:18;;;;;;;10.32;4.30;;;14.30;73.10;;;;;;5073649;28;20128;-80
2023/03/14 04:31:43;;;;;;;10.38;4.30;;;14.20;73.20;;;;;;5073016;28;20056;-79
2023/03/14 04:34:09;;;;;;;10.07;4.78;;;14.20;73.30;;;;;;5073033;28;20480;-79
2023/03/14 04:36:34;;;;;;;11.45;4.22;;;14.20;73.60;;;;;;5072497;28;20484;-78
2023/03/14 04:39:00;;;;;;;9.98;4.30;;;14.10;73.50;;;;;;5073414;28;20499;-80
2023/03/14 04:41:26;;;;;;;9.82;3.40;;;14.10;73.40;;;;;;5054702;28;20036;-79
2023/03/14 04:43:52;;;;;;;10.82;5.05;;;14.20;73.20;;;;;;5073127;28;20040;-79
2023/03/14 04:46:17;;;;;;;9.18;4.05;;;14.20;73.10;;;;;;5072788;28;20040;-80
2023/03/14 04:48:43;;;;;;;12.85;5.30;;;14.20;73.20;;;;;;5072903;28;20043;-78
2023/03/14 04:51:08;;;;;;;14.95;6.55;;;14.20;73.30;;;;;;5072737;28;20033;-77
2023/03/14 04:53:35;;;;;;;13.40;6.45;;;14.10;73.70;;;;;;5072907;28;20087;-80
2023/03/14 04:56:01;;;;;;;13.70;7.03;;;14.00;74.20;;;;;;5074406;28;20028;-81
2023/03/14 04:58:27;;;;;;;15.00;6.93;;;14.00;74.90;;;;;;5058796;28;20032;-79
2023/03/14 05:00:52;;;;;;;13.48;7.38;;;13.90;75.10;;;;;;5074196;28;20043;-78
2023/03/14 05:03:18;;;;;;;12.95;8.23;;;13.80;75.20;;;;;;5080255;28;20045;-78
2023/03/14 05:05:44;;;;;;;11.25;6.43;;;13.80;75.60;;;;;;5095453;28;20021;-79
2023/03/14 05:08:10;;;;;;;11.10;6.70;;;13.80;75.80;;;;;;5094414;28;20045;-79
2023/03/14 05:10:36;;;;;;;11.75;5.88;;;13.80;75.70;;;;;;5079812;28;20024;-80
2023/03/14 05:13:02;;;;;;;9.30;5.72;;;13.70;75.70;;;;;;5057430;28;20032;-79
2023/03/14 05:15:28;;;;;;;12.38;6.22;;;13.80;75.50;;;;;;5073740;28;20029;-80
2023/03/14 05:17:54;;;;;;;13.15;5.93;;;13.80;75.60;;;;;;5072627;28;20036;-80
2023/03/14 05:20:20;;;;;;;12.80;6.18;;;13.80;75.50;;;;;;5072481;28;20071;-80
2023/03/14 05:22:46;;;;;;;13.57;6.82;;;13.80;75.50;;;;;;5072932;28;20051;-79
2023/03/14 05:25:12;;;;;;;13.25;5.68;;;13.80;75.80;;;;;;5072879;28;20029;-80
2023/03/14 05:27:37;;;;;;;10.85;5.63;;;13.80;75.90;;;;;;5076991;28;20096;-79
2023/03/14 05:30:04;;;;;;;9.80;4.43;;;13.80;75.60;;;;;;5094187;28;20033;-80
2023/03/14 05:32:30;;;;;;;10.38;4.55;;;13.80;75.00;;;;;;5059806;28;20037;-79
2023/03/14 05:34:58;;;;;;;10.02;2.70;;;13.90;74.70;;;;;;5072694;28;20044;-79
2023/03/14 05:37:25;;;;;;;10.95;3.00;;;14.00;73.60;;;;;;5072522;28;20502;-80
2023/03/14 05:39:50;;;;;;;7.97;2.40;;;14.10;72.50;;;;;;5073683;28;20064;-79
2023/03/14 05:42:16;;;;;;;4.60;1.75;;;14.20;71.90;;;;;;5074395;28;20388;-79
2023/03/14 05:44:42;;;;;;;7.03;1.67;;;14.30;71.20;;;;;;5074457;28;20051;-80
2023/03/14 05:47:07;;;;;;;5.57;1.90;;;14.40;70.30;;;;;;5074432;28;20056;-75
2023/03/14 05:49:33;;;;;;;7.35;1.90;;;14.50;70.00;;;;;;5077131;28;20036;-81
2023/03/14 05:51:59;;;;;;;7.38;2.20;;;14.60;69.60;;;;;;5077114;28;20020;-80
2023/03/14 05:54:24;;;;;;;5.95;2.50;;;14.60;69.20;;;;;;5079978;28;20036;-79
2023/03/14 05:56:50;;;;;;;8.98;3.10;;;14.70;69.40;;;;;;5080855;28;20372;-80
2023/03/14 05:59:16;;;;;;;7.03;2.30;;;14.70;69.40;;;;;;5079342;28;20440;-79
2023/03/14 06:01:41;;;;;;;5.45;2.13;;;14.70;69.00;;;;;;5076316;28;20056;-79
2023/03/14 06:04:07;;;;;;;7.90;2.08;;;14.80;69.00;;;;;;5077922;28;20494;-79
2023/03/14 06:06:33;;;;;;;9.48;2.38;;;14.80;68.80;;;;;;5077306;28;20107;-81
2023/03/14 06:08:59;;;;;;;6.07;2.08;;;14.80;68.70;;;;;;5060045;28;20040;-81
2023/03/14 06:11:24;;;;;;;8.70;2.42;;;14.80;69.00;;;;;;5059009;28;20123;-80
2023/03/14 06:13:51;;;;;;;8.15;2.30;;;14.80;68.90;;;;;;5076057;28;20179;-80
2023/03/14 06:16:17;;;;;;;7.68;2.15;;;14.90;69.00;;;;;;5058378;28;20090;-80
2023/03/14 06:18:43;;;;;;;4.90;1.95;;;14.90;69.20;;;;;;5076245;28;20452;-80
2023/03/14 06:21:08;;;;;;;7.80;2.28;;;14.90;69.20;;;;;;5076000;28;20033;-80
2023/03/14 06:23:34;;;;;;;9.23;2.38;;;14.90;69.00;;;;;;5075780;28;20056;-82
2023/03/14 06:26:00;;;;;;;7.03;2.10;;;15.00;69.20;;;;;;5077043;28;20039;-80
2023/03/14 06:28:26;;;;;;;7.45;2.25;;;15.00;69.40;;;;;;5060660;28;20040;-80
2023/03/14 06:30:52;;;;;;;9.13;2.88;;;15.00;69.50;;;;;;5076547;28;20032;-80
2023/03/14 06:33:17;;;;;;;10.48;2.40;;;15.10;69.30;;;;;;5077296;28;20507;-79
2023/03/14 06:35:44;;;;;;;9.02;2.80;;;15.10;69.30;;;;;;5076508;28;20036;-79
2023/03/14 06:38:09;;;;;;;8.93;2.75;;;15.20;69.10;;;;;;5088968;28;20024;-79
2023/03/14 06:40:35;;;;;;;8.40;2.90;;;15.20;69.10;;;;;;5085212;28;20082;-79
2023/03/14 06:43:01;;;;;;;16.77;3.30;;;15.30;69.70;;;;;;5075125;28;20047;-79
2023/03/14 06:45:26;;;;;;;9.32;3.40;;;15.40;69.00;;;;;;5057291;28;20139;-79
2023/03/14 06:47:52;;;;;;;8.73;2.47;;;15.50;68.70;;;;;;5076044;28;20044;-79
2023/03/14 06:50:18;;;;;;;6.43;2.40;;;15.50;68.10;;;;;;5076305;28;20071;-81
2023/03/14 06:52:47;;;;;;;10.95;2.67;;;15.60;67.90;;;;;;5075260;28;20040;-80
2023/03/14 06:55:14;;;;;;;14.40;3.88;;;15.60;67.90;;;;;;5075347;28;20032;-81
2023/03/14 06:57:40;;;;;;;8.55;3.30;;;15.70;67.70;;;;;;5074647;28;20075;-80
2023/03/14 07:00:08;;;;;;;11.57;3.15;;;15.90;68.00;;;;;;5074726;28;20044;-79
2023/03/14 07:02:34;;;;;;;10.27;3.03;;;16.00;67.80;;;;;;5074601;28;20115;-80
2023/03/14 07:05:00;;;;;;;11.23;2.88;;;16.10;67.40;;;;;;5074783;28;20067;-80
2023/03/14 07:07:27;;;;;;;12.07;2.50;;;16.30;67.50;;;;;;5057126;28;20063;-79
2023/03/14 07:09:52;;;;;;;9.43;2.72;;;16.40;67.00;;;;;;5075437;28;20112;-80
2023/03/14 07:12:18;;;;;;;8.40;2.88;;;16.50;67.00;;;;;;5076329;28;20056;-79
2023/03/14 07:14:44;;;;;;;8.38;2.80;;;16.70;66.60;;;;;;5078054;28;20103;-79
2023/03/14 07:17:09;;;;;;;9.93;2.53;;;16.90;66.60;;;;;;5075520;28;20043;-79
2023/03/14 07:19:35;;;;;;;7.38;2.17;;;17.10;66.20;;;;;;5074995;28;20040;-79
2023/03/14 07:22:01;;;;;;;10.35;2.22;;;17.20;65.70;;;;;;5074774;28;20074;-79
2023/03/14 07:24:26;;;;;;;7.72;2.17;;;17.40;65.20;;;;;;5075019;28;20095;-80
2023/03/14 07:26:52;;;;;;;10.25;2.25;;;17.50;64.60;;;;;;5056851;28;20425;-79
2023/03/14 07:29:18;;;;;;;8.45;2.17;;;17.60;64.30;;;;;;5074498;28;20037;-80
2023/03/14 07:31:44;;;;;;;12.40;2.40;;;17.70;63.90;;;;;;5057060;28;20042;-80
2023/03/14 07:34:09;;;;;;;10.52;2.22;;;17.80;63.30;;;;;;5074841;28;20037;-79
2023/03/14 07:36:35;;;;;;;8.30;2.60;;;17.80;63.60;;;;;;5075051;28;20059;-81
2023/03/14 07:39:01;;;;;;;12.35;2.25;;;17.90;63.50;;;;;;5074819;28;20091;-79
2023/03/14 07:41:27;;;;;;;11.73;3.00;;;18.00;63.30;;;;;;5076446;28;20029;-78
2023/03/14 07:43:52;;;;;;;8.30;2.03;;;18.00;63.40;;;;;;5074538;28;20434;-80
2023/03/14 07:46:18;;;;;;;11.20;2.70;;;18.00;63.70;;;;;;5079246;28;20029;-78
2023/03/14 07:48:44;;;;;;;10.65;2.67;;;18.00;63.80;;;;;;5090716;28;20491;-79
2023/03/14 07:51:09;;;;;;;8.45;2.65;;;18.10;64.10;;;;;;5075570;28;20025;-80
2023/03/14 07:53:35;;;;;;;12.48;3.78;;;18.20;64.00;;;;;;5079476;28;20032;-80
2023/03/14 07:56:01;;;;;;;17.20;7.03;;;18.10;64.00;;;;;;5079142;28;20052;-80
2023/03/14 07:58:27;;;;;;;17.20;4.82;;;18.10;64.40;;;;;;5075687;28;20040;-80
2023/03/14 08:00:52;;;;;;;12.90;4.13;;;18.10;64.70;;;;;;5074471;28;20040;-80
2023/03/14 08:03:19;;;;;;;13.68;3.60;;;18.10;64.90;;;;;;5074138;28;20044;-81
2023/03/14 08:05:47;;;;;;;14.82;3.22;;;18.00;65.40;;;;;;5074581;28;20024;-79
2023/03/14 08:08:13;;;;;;;11.15;2.72;;;18.00;65.60;;;;;;5056031;28;20626;-79
2023/03/14 08:10:38;;;;;;;10.57;2.53;;;17.90;65.80;;;;;;5072900;28;20056;-79
2023/03/14 08:13:04;;;;;;;11.38;3.28;;;17.80;66.10;;;;;;5073868;28;20044;-80
2023/03/14 08:15:31;;;;;;;12.25;2.67;;;17.70;66.30;;;;;;5074073;28;20048;-80
2023/03/14 08:17:57;;;;;;;12.18;2.63;;;17.70;66.40;;;;;;5074062;28;20123;-81
2023/03/14 08:20:26;;;;;;;13.68;3.33;;;17.70;66.50;;;;;;5075030;28;20060;-79
2023/03/14 08:22:52;;;;;;;15.98;3.10;;;17.70;66.70;;;;;;5074704;28;20114;-80
2023/03/14 08:25:18;;;;;;;12.65;3.40;;;17.80;66.70;;;;;;5073804;28;20076;-81
2023/03/14 08:27:44;;;;;;;9.73;2.70;;;18.00;66.40;;;;;;5073226;28;20559;-80
2023/03/14 08:30:12;;;;;;;9.80;2.92;;;18.00;66.60;;;;;;5055433;28;20033;-81
2023/03/14 08:32:37;;;;;;;12.43;2.92;;;18.00;66.50;;;;;;5073946;28;20032;-80
2023/03/14 08:35:05;;;;;;;17.20;3.75;;;18.00;66.60;;;;;;5073779;28;20044;-80
2023/03/14 08:37:32;;;;;;;13.23;3.17;;;18.00;66.40;;;;;;5074837;28;20024;-80
2023/03/14 08:39:58;;;;;;;12.98;3.28;;;18.10;66.70;;;;;;5077417;28;20059;-79
2023/03/14 08:42:23;;;;;;;13.18;3.50;;;18.20;66.70;;;;;;5074851;28;20032;-81
2023/03/14 08:44:51;;;;;;;10.18;2.95;;;18.30;66.80;;;;;;5074230;28;20032;-80
2023/03/14 08:47:17;;;;;;;13.15;3.72;;;18.40;66.80;;;;;;5074235;28;20115;-80
2023/03/14 08:49:43;;;;;;;13.88;3.90;;;18.40;66.60;;;;;;5055610;28;20483;-80
2023/03/14 08:52:09;;;;;;;11.32;3.13;;;18.40;66.40;;;;;;5073721;28;20024;-80
2023/03/14 08:54:34;;;;;;;21.02;3.53;;;18.40;66.40;;;;;;5073722;28;20096;-79
2023/03/14 08:57:00;;;;;;;13.20;3.08;;;18.40;66.60;;;;;;5080523;28;20449;-80
2023/03/14 08:59:26;;;;;;;22.38;3.53;;;18.40;66.70;;;;;;5087068;28;20429;-80
2023/03/14 09:01:52;;;;;;;10.07;3.00;;;18.40;66.60;;;;;;5074309;28;20040;-81
2023/03/14 09:04:18;;;;;;;12.40;3.47;;;18.30;66.50;;;;;;5072993;28;20338;-79
2023/03/14 09:06:44;;;;;;;13.55;3.80;;;18.40;66.70;;;;;;5072590;28;20083;-81
2023/03/14 09:09:09;;;;;;;14.45;4.10;;;18.40;66.80;;;;;;5055179;28;20396;-80
2023/03/14 09:11:35;;;;;;;10.93;3.10;;;18.50;66.60;;;;;;5072933;28;20025;-80
2023/03/14 09:14:01;;;;;;;11.98;2.70;;;18.60;66.50;;;;;;5073552;28;20051;-81
2023/03/14 09:16:27;;;;;;;10.48;3.60;;;18.70;66.00;;;;;;5073271;28;20060;-81
2023/03/14 09:18:59;;;;;;;9.30;2.97;;;18.70;65.80;;;;;;5073019;28;20488;-80
2023/03/14 09:21:28;;;;;;;14.32;3.58;;;18.80;65.70;;;;;;5074555;28;20032;-82
2023/03/14 09:23:53;;;;;;;10.70;3.00;;;18.80;65.70;;;;;;5078466;28;20327;-79
2023/03/14 09:26:19;;;;;;;10.95;3.35;;;18.90;65.60;;;;;;5079467;28;20071;-81
2023/03/14 09:28:45;;;;;;;16.05;3.78;;;18.90;65.30;;;;;;5077925;28;20499;-81
2023/03/14 09:31:12;;;;;;;16.10;3.25;;;18.90;65.40;;;;;;5077423;28;20033;-81
2023/03/14 09:33:38;;;;;;;13.35;3.25;;;18.80;65.40;;;;;;5077709;28;20036;-81
2023/03/14 09:36:04;;;;;;;12.23;3.38;;;18.70;65.40;;;;;;5080868;28;20031;-80
2023/03/14 09:38:29;;;;;;;14.82;3.65;;;18.60;65.90;;;;;;5070162;28;20472;-80
2023/03/14 09:40:58;;;;;;;17.33;3.78;;;18.50;66.00;;;;;;5088220;28;20055;-80
2023/03/14 09:43:25;;;;;;;14.75;3.45;;;18.50;66.50;;;;;;5060309;28;20072;-81
2023/03/14 09:45:52;;;;;;;14.40;3.38;;;18.40;66.60;;;;;;5077337;28;20032;-81
2023/03/14 09:48:26;;;;;;;13.88;3.78;;;18.30;67.00;;;;;;5059477;28;20067;-80
2023/03/14 09:50:54;;;;;;;;;;;18.30;67.20;;;;;;5077352;28;20029;-79
2023/03/14 09:53:42;;;;;;;11.85;3.35;;;18.20;67.20;;;;;;5077334;28;19927;-80
2023/03/14 09:56:30;;;;;;;14.55;3.67;;;18.10;67.20;;;;;;5076871;28;20028;-79
2023/03/14 09:59:02;;;;;;;14.60;3.47;;;18.10;67.40;;;;;;5077438;28;20456;-81
2023/03/14 10:01:33;;;;;;;13.40;3.58;;;18.00;67.30;;;;;;5078671;28;20457;-81
2023/03/14 10:04:10;;;;;;;12.80;3.72;;;18.00;67.50;;;;;;5077002;28;20029;-81
2023/03/14 10:06:35;;;;;;;15.10;3.63;;;18.00;67.80;;;;;;5081223;28;20028;-77
2023/03/14 10:09:03;;;;;;;16.35;4.05;;;18.00;67.80;;;;;;5095520;28;20092;-81
2023/03/14 10:11:29;;;;;;;11.98;3.95;;;17.90;67.60;;;;;;5081930;28;20032;-80
2023/03/14 10:14:02;;;;;;;17.88;4.35;;;17.90;68.00;;;;;;5077781;28;20060;-80
2023/03/14 10:16:31;;;;;;;17.20;4.20;;;17.90;67.90;;;;;;5076388;28;20025;-80
2023/03/14 10:19:12;;;;;;;9.98;3.25;;;17.90;67.90;;;;;;5077577;28;20095;-80
2023/03/14 10:21:40;;;;;;;16.70;4.10;;;17.90;68.00;;;;;;5077569;28;20033;-81
2023/03/14 10:24:18;;;;;;;14.98;4.13;;;17.80;68.00;;;;;;5063242;28;20086;-79
2023/03/14 10:26:48;;;;;;;17.58;4.07;;;17.80;68.20;;;;;;5083633;28;20107;-80
2023/03/14 10:29:14;;;;;;;11.90;3.63;;;17.80;68.30;;;;;;5092659;28;20032;-76
2023/03/14 10:31:47;;;;;;;13.30;3.88;;;17.80;68.10;;;;;;5090358;28;20033;-79
2023/03/14 10:34:20;;;;;;;10.40;2.87;;;17.80;68.20;;;;;;5076495;28;20087;-79
2023/03/14 10:36:51;;;;;;;13.38;3.20;;;17.80;68.20;;;;;;5059488;28;20267;-79
2023/03/14 10:39:50;;;;;;;10.82;4.05;;;17.80;68.10;;;;;;5077793;28;20106;-80
2023/03/14 10:42:20;;;;;;;16.45;3.67;;;17.90;68.10;;;;;;5077994;28;20068;-81
2023/03/14 10:44:50;;;;;;;12.77;3.33;;;17.80;68.10;;;;;;5076055;28;20037;-81
2023/03/14 10:47:20;;;;;;;14.07;3.47;;;17.80;67.90;;;;;;5088314;28;20029;-80
2023/03/14 10:49:55;;;;;;;13.55;3.88;;;17.80;68.10;;;;;;5087620;28;20528;-79
2023/03/14 10:52:27;;;;;;;11.40;3.53;;;17.80;68.10;;;;;;5081733;28;20412;-79
2023/03/14 10:55:10;;;;;;;13.48;4.00;;;17.70;68.50;;;;;;5065962;28;20032;-80
2023/03/14 10:57:43;;;;;;;13.55;4.20;;;17.70;68.60;;;;;;5078996;28;20033;-80
2023/03/14 11:00:22;;;;;;;9.55;3.25;;;17.70;68.50;;;;;;5059788;28;20040;-80
2023/03/14 11:03:10;;;;;;;15.90;4.03;;;17.60;68.60;;;;;;5077813;28;20128;-80
2023/03/14 11:06:07;;;;;;;11.60;3.83;;;17.60;68.60;;;;;;5076875;28;20072;-80
2023/03/14 11:08:39;;;;;;;12.10;3.60;;;17.60;69.10;;;;;;5072463;28;20050;-80
2023/03/14 11:11:23;;;;;;;13.00;3.78;;;17.60;69.20;;;;;;5076357;28;20111;-81
2023/03/14 11:14:02;;;;;;;;;;;17.50;69.20;;;;;;5076695;28;20479;-79
2023/03/14 11:16:49;;;;;;;12.40;3.45;;;17.50;69.40;;;;;;5058825;28;19905;-80
2023/03/14 11:19:51;;;;;;;16.00;3.67;;;17.40;69.60;;;;;;5083125;28;20085;-81
2023/03/14 11:22:17;;;;;;;11.57;3.80;;;17.40;69.70;;;;;;5068099;28;20033;-80
2023/03/14 11:25:04;;;;;;;15.05;3.97;;;17.40;69.20;;;;;;5075937;28;20168;-81
2023/03/14 11:28:02;;;;;;;12.82;3.85;;;17.40;69.30;;;;;;5076695;28;20040;-80
2023/03/14 11:30:46;;;;;;;10.50;4.20;;;17.40;70.30;;;;;;5072102;28;20046;-79
2023/03/14 11:33:27;;;;;;;13.10;3.90;;;17.40;70.20;;;;;;5079135;28;20036;-79
2023/03/14 11:36:15;;;;;;;17.13;3.97;;;17.30;70.90;;;;;;5077456;28;20408;-80
2023/03/14 11:38:49;;;;;;;14.18;4.03;;;17.30;71.10;;;;;;5077779;28;20037;-79
2023/03/14 11:41:33;;;;;;;16.38;3.83;;;17.30;70.70;;;;;;5078519;28;20091;-79
2023/03/14 11:44:14;;;;;;;17.38;4.60;;;17.30;70.50;;;;;;5076539;28;20455;-81
2023/03/14 11:46:48;;;;;;;10.68;3.42;;;17.40;71.90;;;;;;5075894;28;20048;-81
2023/03/14 11:49:34;;;;;;;12.57;4.15;;;17.30;70.90;;;;;;5075549;28;20064;-80
2023/03/14 11:52:05;;;;;;;14.90;3.65;;;17.30;71.50;;;;;;5074208;28;20033;-81
2023/03/14 11:54:35;;;;;;;17.50;3.83;;;17.30;71.00;;;;;;5073199;28;20055;-81
2023/03/14 11:57:13;;;;;;;13.60;3.75;;;17.30;72.00;;;;;;5075918;28;20029;-81
2023/03/14 11:59:57;;;;;;;10.13;3.10;;;17.30;72.10;;;;;;5075421;28;20047;-80
2023/03/14 12:02:38;;;;;;;13.15;3.75;;;17.30;72.20;;;;;;5075161;28;20045;-81
2023/03/14 12:05:34;;;;;;;12.13;3.40;;;17.20;72.40;;;;;;5074413;28;20507;-80
2023/03/14 12:08:09;;;;;;;9.80;3.40;;;17.30;73.00;;;;;;5056449;28;20139;-79
2023/03/14 12:10:51;;;;;;;10.25;3.15;;;17.30;72.10;;;;;;5073661;28;20032;-80
2023/03/14 12:13:17;;;;;;;12.07;3.70;;;17.50;71.90;;;;;;5074422;28;20036;-81
2023/03/14 12:15:55;;;;;;;9.40;3.40;;;17.70;71.60;;;;;;5073726;28;20033;-81
2023/03/14 12:18:26;;;;;;;10.30;3.53;;;17.80;71.00;;;;;;5074040;28;20040;-81
2023/03/14 12:21:04;;;;;;;12.15;3.33;;;17.80;71.00;;;;;;5073907;28;20103;-81
2023/03/14 12:23:54;;;;;;;11.18;3.17;;;17.70;71.40;;;;;;5077696;28;20024;-81
2023/03/14 12:26:43;;;;;;;16.58;3.95;;;17.50;72.40;;;;;;5074850;28;20082;-81
2023/03/14 12:29:16;;;;;;;12.40;3.90;;;17.40;71.80;;;;;;5073582;28;20091;-80
2023/03/14 12:31:45;;;;;;;11.10;3.55;;;17.40;71.90;;;;;;5074818;28;20040;-80
2023/03/14 12:34:11;;;;;;;11.82;3.65;;;17.30;72.20;;;;;;5095830;28;20025;-80
2023/03/14 12:36:49;;;;;;;13.73;4.07;;;17.30;72.30;;;;;;5074117;28;20044;-81
2023/03/14 12:39:43;;;;;;;12.90;4.57;;;17.30;72.90;;;;;;5073923;28;20111;-81
2023/03/14 12:42:14;;;;;;;10.75;3.60;;;17.30;73.00;;;;;;5073545;28;20067;-80
2023/03/14 12:44:43;;;;;;;13.07;4.13;;;17.30;73.10;;;;;;5073677;28;20107;-80
2023/03/14 12:47:18;;;;;;;13.15;3.63;;;17.40;72.10;;;;;;5073360;28;20039;-81